sensor_id;sensor_type;location;lat;lon;timestamp;pressure;altitude;pressure_sealevel;temperature;humidity
70916;BME280;58557;50.982;-3.222;2023-02-21T00:01:17;101541.68;;;12.78;53.91
70916;BME280;58557;50.982;-3.222;2023-02-21T00:03:43;101542.89;;;11.89;56.87
70916;BME280;58557;50.982;-3.222;2023-02-21T00:06:09;101537.46;;;12.24;54.93
70916;BME280;58557;50.982;-3.222;2023-02-21T00:08:34;101536.77;;;12.36;57.85
70916;BME280;58557;50.982;-3.222;2023-02-21T00:11:00;101534.96;;;11.92;57.07
70916;BME280;58557;50.982;-3.222;2023-02-21T00:13:26;101535.64;;;12.76;55.58
70916;BME280;58557;50.982;-3.222;2023-02-21T00:15:51;101532.40;;;13.35;52.89
70916;BME280;58557;50.982;-3.222;2023-02-21T00:18:17;101535.48;;;11.85;55.07
70916;BME280;58557;50.982;-3.222;2023-02-21T00:20:42;101527.32;;;13.68;54.23
70916;BME280;58557;50.982;-3.222;2023-02-21T00:23:08;101526.18;;;14.21;51.69
70916;BME280;58557;50.982;-3.222;2023-02-21T00:25:34;101523.04;;;13.43;51.13
70916;BME280;58557;50.982;-3.222;2023-02-21T00:28:00;101524.28;;;14.12;52.54
70916;BME280;58557;50.982;-3.222;2023-02-21T00:30:25;101525.42;;;11.32;57.77
70916;BME280;58557;50.982;-3.222;2023-02-21T00:32:51;101525.27;;;9.96;60.99
70916;BME280;58557;50.982;-3.222;2023-02-21T00:35:17;101525.19;;;12.02;58.52
70916;BME280;58557;50.982;-3.222;2023-02-21T00:37:42;101523.67;;;11.15;59.56
70916;BME280;58557;50.982;-3.222;2023-02-21T00:40:10;101523.59;;;11.18;58.90
70916;BME280;58557;50.982;-3.222;2023-02-21T00:42:33;101523.10;;;12.81;55.66
70916;BME280;58557;50.982;-3.222;2023-02-21T00:44:58;101518.11;;;12.49;56.42
70916;BME280;58557;50.982;-3.222;2023-02-21T00:47:24;101510.54;;;13.04;53.41
70916;BME280;58557;50.982;-3.222;2023-02-21T00:49:49;101508.82;;;12.79;54.12
70916;BME280;58557;50.982;-3.222;2023-02-21T00:52:15;101500.83;;;11.71;57.07
70916;BME280;58557;50.982;-3.222;2023-02-21T00:54:40;101496.44;;;12.96;54.15
70916;BME280;58557;50.982;-3.222;2023-02-21T00:57:05;101488.85;;;13.88;50.57
70916;BME280;58557;50.982;-3.222;2023-02-21T00:59:31;101487.01;;;12.03;53.27
70916;BME280;58557;50.982;-3.222;2023-02-21T01:01:56;101479.35;;;11.96;56.01
70916;BME280;58557;50.982;-3.222;2023-02-21T01:04:22;101473.55;;;13.98;51.38
70916;BME280;58557;50.982;-3.222;2023-02-21T01:06:49;101473.44;;;13.38;50.95
70916;BME280;58557;50.982;-3.222;2023-02-21T01:09:12;101469.39;;;12.77;51.37
70916;BME280;58557;50.982;-3.222;2023-02-21T01:11:38;101463.38;;;13.09;51.22
70916;BME280;58557;50.982;-3.222;2023-02-21T01:14:03;101465.15;;;12.57;51.53
70916;BME280;58557;50.982;-3.222;2023-02-21T01:16:29;101456.53;;;13.01;51.31
70916;BME280;58557;50.982;-3.222;2023-02-21T01:18:54;101448.86;;;13.69;51.10
70916;BME280;58557;50.982;-3.222;2023-02-21T01:21:20;101446.97;;;14.32;49.42
70916;BME280;58557;50.982;-3.222;2023-02-21T01:23:45;101439.08;;;13.86;48.27
70916;BME280;58557;50.982;-3.222;2023-02-21T01:26:11;101439.18;;;14.54;49.60
70916;BME280;58557;50.982;-3.222;2023-02-21T01:28:36;101439.14;;;13.98;48.29
70916;BME280;58557;50.982;-3.222;2023-02-21T01:31:02;101438.07;;;14.06;49.13
70916;BME280;58557;50.982;-3.222;2023-02-21T01:33:28;101438.75;;;12.61;51.22
70916;BME280;58557;50.982;-3.222;2023-02-21T01:35:53;101434.36;;;14.04;50.76
70916;BME280;58557;50.982;-3.222;2023-02-21T01:38:19;101430.85;;;13.23;49.61
70916;BME280;58557;50.982;-3.222;2023-02-21T01:40:44;101429.58;;;15.21;47.78
70916;BME280;58557;50.982;-3.222;2023-02-21T01:43:14;101429.20;;;14.29;47.39
70916;BME280;58557;50.982;-3.222;2023-02-21T01:45:44;101428.26;;;14.97;46.13
70916;BME280;58557;50.982;-3.222;2023-02-21T01:48:01;101428.59;;;15.01;46.87
70916;BME280;58557;50.982;-3.222;2023-02-21T01:50:29;101428.05;;;15.41;46.23
70916;BME280;58557;50.982;-3.222;2023-02-21T01:52:52;101428.54;;;13.95;47.17
70916;BME280;58557;50.982;-3.222;2023-02-21T01:55:18;101428.46;;;14.34;47.61
70916;BME280;58557;50.982;-3.222;2023-02-21T01:57:44;101429.65;;;14.59;47.98
70916;BME280;58557;50.982;-3.222;2023-02-21T02:00:12;101430.41;;;13.82;48.82
70916;BME280;58557;50.982;-3.222;2023-02-21T02:02:38;101431.23;;;14.51;48.50
70916;BME280;58557;50.982;-3.222;2023-02-21T02:05:00;101434.65;;;15.27;46.37
70916;BME280;58557;50.982;-3.222;2023-02-21T02:07:25;101439.85;;;14.14;48.26
70916;BME280;58557;50.982;-3.222;2023-02-21T02:09:51;101441.13;;;14.11;48.09
70916;BME280;58557;50.982;-3.222;2023-02-21T02:12:31;101438.40;;;14.24;48.44
70916;BME280;58557;50.982;-3.222;2023-02-21T02:14:52;101438.91;;;14.94;47.32
70916;BME280;58557;50.982;-3.222;2023-02-21T02:17:14;101439.59;;;13.33;50.53
70916;BME280;58557;50.982;-3.222;2023-02-21T02:19:58;101438.94;;;14.11;49.09
70916;BME280;58557;50.982;-3.222;2023-02-21T02:24:39;101430.27;;;14.11;48.36
70916;BME280;58557;50.982;-3.222;2023-02-21T02:29:29;101423.65;;;13.12;52.55
70916;BME280;58557;50.982;-3.222;2023-02-21T02:31:53;101422.57;;;14.24;49.26
70916;BME280;58557;50.982;-3.222;2023-02-21T02:36:38;101418.71;;;14.40;48.33
70916;BME280;58557;50.982;-3.222;2023-02-21T02:39:04;101412.89;;;14.82;47.29
70916;BME280;58557;50.982;-3.222;2023-02-21T02:41:31;101408.52;;;14.01;49.10
70916;BME280;58557;50.982;-3.222;2023-02-21T02:43:52;101403.34;;;13.81;49.20
70916;BME280;58557;50.982;-3.222;2023-02-21T02:46:18;101398.97;;;14.87;47.21
70916;BME280;58557;50.982;-3.222;2023-02-21T02:48:42;101394.83;;;12.17;50.50
70916;BME280;58557;50.982;-3.222;2023-02-21T02:51:08;101386.74;;;12.47;51.55
70916;BME280;58557;50.982;-3.222;2023-02-21T02:53:30;101390.77;;;10.46;55.18
70916;BME280;58557;50.982;-3.222;2023-02-21T02:55:57;101391.11;;;11.70;55.09
70916;BME280;58557;50.982;-3.222;2023-02-21T02:58:23;101392.79;;;11.13;54.44
70916;BME280;58557;50.982;-3.222;2023-02-21T03:01:03;101386.59;;;13.30;50.05
70916;BME280;58557;50.982;-3.222;2023-02-21T03:03:25;101384.60;;;12.23;51.65
70916;BME280;58557;50.982;-3.222;2023-02-21T03:05:46;101389.07;;;13.77;49.51
70916;BME280;58557;50.982;-3.222;2023-02-21T03:08:10;101383.76;;;13.72;49.51
70916;BME280;58557;50.982;-3.222;2023-02-21T03:10:37;101380.80;;;12.70;50.92
70916;BME280;58557;50.982;-3.222;2023-02-21T03:13:02;101375.93;;;12.90;52.94
70916;BME280;58557;50.982;-3.222;2023-02-21T03:15:24;101371.57;;;12.47;52.14
70916;BME280;58557;50.982;-3.222;2023-02-21T03:17:52;101368.40;;;12.22;52.31
70916;BME280;58557;50.982;-3.222;2023-02-21T03:20:13;101366.49;;;11.41;53.46
70916;BME280;58557;50.982;-3.222;2023-02-21T03:22:37;101361.04;;;10.16;57.68
70916;BME280;58557;50.982;-3.222;2023-02-21T03:25:03;101357.87;;;11.99;54.28
70916;BME280;58557;50.982;-3.222;2023-02-21T03:27:29;101357.76;;;12.95;52.30
70916;BME280;58557;50.982;-3.222;2023-02-21T03:29:55;101361.48;;;11.25;54.83
70916;BME280;58557;50.982;-3.222;2023-02-21T03:32:23;101357.60;;;11.84;53.66
70916;BME280;58557;50.982;-3.222;2023-02-21T03:34:44;101354.14;;;10.51;57.25
70916;BME280;58557;50.982;-3.222;2023-02-21T03:37:18;101352.92;;;10.50;59.17
70916;BME280;58557;50.982;-3.222;2023-02-21T03:39:35;101354.08;;;11.14;55.76
70916;BME280;58557;50.982;-3.222;2023-02-21T03:42:00;101351.41;;;10.37;59.98
70916;BME280;58557;50.982;-3.222;2023-02-21T03:44:26;101353.91;;;11.08;56.60
70916;BME280;58557;50.982;-3.222;2023-02-21T03:46:53;101351.04;;;11.51;55.94
70916;BME280;58557;50.982;-3.222;2023-02-21T03:49:17;101348.45;;;11.36;55.83
70916;BME280;58557;50.982;-3.222;2023-02-21T03:51:43;101339.15;;;12.80;53.81
70916;BME280;58557;50.982;-3.222;2023-02-21T03:54:09;101335.42;;;12.19;52.91
70916;BME280;58557;50.982;-3.222;2023-02-21T03:56:34;101340.98;;;11.85;54.30
70916;BME280;58557;50.982;-3.222;2023-02-21T03:59:00;101341.67;;;10.77;56.54
70916;BME280;58557;50.982;-3.222;2023-02-21T04:01:25;101336.25;;;11.72;56.74
70916;BME280;58557;50.982;-3.222;2023-02-21T04:03:50;101327.40;;;12.32;53.74
70916;BME280;58557;50.982;-3.222;2023-02-21T04:06:16;101325.21;;;12.87;52.44
70916;BME280;58557;50.982;-3.222;2023-02-21T04:08:41;101319.80;;;13.11;52.10
70916;BME280;58557;50.982;-3.222;2023-02-21T04:11:07;101315.65;;;12.91;52.20
70916;BME280;58557;50.982;-3.222;2023-02-21T04:13:32;101315.65;;;12.57;51.93
70916;BME280;58557;50.982;-3.222;2023-02-21T04:15:57;101312.41;;;12.08;53.51
70916;BME280;58557;50.982;-3.222;2023-02-21T04:18:23;101309.77;;;12.65;54.04
70916;BME280;58557;50.982;-3.222;2023-02-21T04:20:48;101311.72;;;12.30;54.04
70916;BME280;58557;50.982;-3.222;2023-02-21T04:23:16;101313.62;;;10.55;56.55
70916;BME280;58557;50.982;-3.222;2023-02-21T04:25:40;101306.00;;;12.69;53.58
70916;BME280;58557;50.982;-3.222;2023-02-21T04:28:05;101301.52;;;12.97;52.40
70916;BME280;58557;50.982;-3.222;2023-02-21T04:30:31;101302.57;;;13.32;50.67
70916;BME280;58557;50.982;-3.222;2023-02-21T04:32:56;101302.15;;;13.13;52.65
70916;BME280;58557;50.982;-3.222;2023-02-21T04:35:21;101303.28;;;12.95;51.45
70916;BME280;58557;50.982;-3.222;2023-02-21T04:37:47;101301.19;;;13.67;49.50
70916;BME280;58557;50.982;-3.222;2023-02-21T04:40:12;101303.10;;;13.08;50.67
70916;BME280;58557;50.982;-3.222;2023-02-21T04:42:38;101295.19;;;11.81;54.32
70916;BME280;58557;50.982;-3.222;2023-02-21T04:45:04;101293.89;;;12.43;54.16
70916;BME280;58557;50.982;-3.222;2023-02-21T04:47:29;101292.97;;;11.65;54.14
70916;BME280;58557;50.982;-3.222;2023-02-21T04:49:54;101297.92;;;10.63;58.28
70916;BME280;58557;50.982;-3.222;2023-02-21T04:52:19;101296.97;;;11.08;56.30
70916;BME280;58557;50.982;-3.222;2023-02-21T04:54:45;101293.20;;;12.14;54.47
70916;BME280;58557;50.982;-3.222;2023-02-21T04:57:10;101290.01;;;12.48;51.89
70916;BME280;58557;50.982;-3.222;2023-02-21T04:59:36;101291.83;;;12.89;51.70
70916;BME280;58557;50.982;-3.222;2023-02-21T05:02:02;101291.46;;;13.14;51.04
70916;BME280;58557;50.982;-3.222;2023-02-21T05:04:27;101289.76;;;13.60;50.31
70916;BME280;58557;50.982;-3.222;2023-02-21T05:06:53;101282.43;;;13.59;49.42
70916;BME280;58557;50.982;-3.222;2023-02-21T05:09:18;101281.34;;;13.69;49.38
70916;BME280;58557;50.982;-3.222;2023-02-21T05:11:43;101279.89;;;14.00;48.70
70916;BME280;58557;50.982;-3.222;2023-02-21T05:14:09;101279.99;;;13.06;50.12
70916;BME280;58557;50.982;-3.222;2023-02-21T05:16:34;101280.98;;;13.11;50.33
70916;BME280;58557;50.982;-3.222;2023-02-21T05:19:00;101283.38;;;13.28;48.79
70916;BME280;58557;50.982;-3.222;2023-02-21T05:21:26;101277.61;;;13.81;49.19
70916;BME280;58557;50.982;-3.222;2023-02-21T05:23:51;101272.40;;;13.23;49.52
70916;BME280;58557;50.982;-3.222;2023-02-21T05:26:16;101275.51;;;13.45;49.85
70916;BME280;58557;50.982;-3.222;2023-02-21T05:28:42;101268.37;;;13.81;49.06
70916;BME280;58557;50.982;-3.222;2023-02-21T05:31:07;101268.21;;;13.19;50.48
70916;BME280;58557;50.982;-3.222;2023-02-21T05:33:33;101268.15;;;14.37;48.28
70916;BME280;58557;50.982;-3.222;2023-02-21T05:35:59;101267.63;;;14.91;47.43
70916;BME280;58557;50.982;-3.222;2023-02-21T05:38:25;101267.43;;;14.27;47.42
70916;BME280;58557;50.982;-3.222;2023-02-21T05:40:50;101267.78;;;14.75;46.97
70916;BME280;58557;50.982;-3.222;2023-02-21T05:43:16;101265.26;;;14.52;47.34
70916;BME280;58557;50.982;-3.222;2023-02-21T05:45:41;101263.41;;;14.22;46.39
70916;BME280;58557;50.982;-3.222;2023-02-21T05:48:07;101260.79;;;14.46;46.96
70916;BME280;58557;50.982;-3.222;2023-02-21T05:50:32;101257.46;;;14.13;47.10
70916;BME280;58557;50.982;-3.222;2023-02-21T05:52:59;101255.16;;;14.12;47.79
70916;BME280;58557;50.982;-3.222;2023-02-21T05:55:23;101249.60;;;14.58;46.70
70916;BME280;58557;50.982;-3.222;2023-02-21T05:57:49;101245.28;;;14.21;47.52
70916;BME280;58557;50.982;-3.222;2023-02-21T06:00:16;101247.02;;;14.34;47.72
70916;BME280;58557;50.982;-3.222;2023-02-21T06:02:40;101239.87;;;13.88;48.40
70916;BME280;58557;50.982;-3.222;2023-02-21T06:05:06;101238.75;;;13.56;48.87
70916;BME280;58557;50.982;-3.222;2023-02-21T06:07:31;101239.67;;;12.70;50.74
70916;BME280;58557;50.982;-3.222;2023-02-21T06:09:56;101230.70;;;13.42;49.51
70916;BME280;58557;50.982;-3.222;2023-02-21T06:12:21;101228.69;;;13.64;50.62
70916;BME280;58557;50.982;-3.222;2023-02-21T06:14:47;101227.28;;;13.23;50.46
70916;BME280;58557;50.982;-3.222;2023-02-21T06:17:12;101223.22;;;13.42;50.87
70916;BME280;58557;50.982;-3.222;2023-02-21T06:19:38;101225.42;;;12.43;53.24
70916;BME280;58557;50.982;-3.222;2023-02-21T06:22:03;101222.80;;;13.28;51.60
70916;BME280;58557;50.982;-3.222;2023-02-21T06:24:29;101219.79;;;12.61;52.14
70916;BME280;58557;50.982;-3.222;2023-02-21T06:26:54;101217.45;;;12.61;52.82
70916;BME280;58557;50.982;-3.222;2023-02-21T06:29:20;101210.14;;;13.16;51.68
70916;BME280;58557;50.982;-3.222;2023-02-21T06:31:46;101219.39;;;12.91;51.68
70916;BME280;58557;50.982;-3.222;2023-02-21T06:34:11;101226.51;;;12.39;53.64
70916;BME280;58557;50.982;-3.222;2023-02-21T06:36:37;101228.76;;;13.61;51.03
70916;BME280;58557;50.982;-3.222;2023-02-21T06:39:02;101230.87;;;13.33;50.05
70916;BME280;58557;50.982;-3.222;2023-02-21T06:41:29;101230.15;;;13.58;49.71
70916;BME280;58557;50.982;-3.222;2023-02-21T06:43:54;101228.61;;;13.78;49.44
70916;BME280;58557;50.982;-3.222;2023-02-21T06:46:21;101223.69;;;13.73;50.18
70916;BME280;58557;50.982;-3.222;2023-02-21T06:48:45;101219.94;;;13.85;49.56
70916;BME280;58557;50.982;-3.222;2023-02-21T06:51:10;101225.93;;;14.43;47.66
70916;BME280;58557;50.982;-3.222;2023-02-21T06:53:35;101234.61;;;14.35;48.31
70916;BME280;58557;50.982;-3.222;2023-02-21T06:56:01;101231.96;;;14.07;48.89
70916;BME280;58557;50.982;-3.222;2023-02-21T06:58:26;101233.89;;;13.89;49.53
70916;BME280;58557;50.982;-3.222;2023-02-21T07:00:52;101235.90;;;13.65;50.12
70916;BME280;58557;50.982;-3.222;2023-02-21T07:03:17;101235.20;;;12.89;51.93
70916;BME280;58557;50.982;-3.222;2023-02-21T07:05:42;101231.98;;;13.09;51.86
70916;BME280;58557;50.982;-3.222;2023-02-21T07:08:08;101232.24;;;13.12;51.77
70916;BME280;58557;50.982;-3.222;2023-02-21T07:10:33;101230.33;;;12.93;52.19
70916;BME280;58557;50.982;-3.222;2023-02-21T07:12:59;101233.19;;;12.64;52.67
70916;BME280;58557;50.982;-3.222;2023-02-21T07:15:24;101233.46;;;13.31;51.41
70916;BME280;58557;50.982;-3.222;2023-02-21T07:17:50;101233.39;;;12.41;52.81
70916;BME280;58557;50.982;-3.222;2023-02-21T07:20:16;101232.35;;;12.75;53.17
70916;BME280;58557;50.982;-3.222;2023-02-21T07:22:41;101224.93;;;11.82;53.24
70916;BME280;58557;50.982;-3.222;2023-02-21T07:25:07;101221.58;;;11.46;55.59
70916;BME280;58557;50.982;-3.222;2023-02-21T07:27:32;101222.19;;;12.57;52.26
70916;BME280;58557;50.982;-3.222;2023-02-21T07:29:58;101222.80;;;12.81;52.88
70916;BME280;58557;50.982;-3.222;2023-02-21T07:32:23;101216.99;;;11.88;53.76
70916;BME280;58557;50.982;-3.222;2023-02-21T07:34:49;101217.28;;;12.85;50.12
70916;BME280;58557;50.982;-3.222;2023-02-21T07:37:15;101213.59;;;13.51;49.90
70916;BME280;58557;50.982;-3.222;2023-02-21T07:39:40;101209.18;;;13.49;49.00
70916;BME280;58557;50.982;-3.222;2023-02-21T07:42:06;101207.65;;;13.78;49.31
70916;BME280;58557;50.982;-3.222;2023-02-21T07:44:32;101212.00;;;12.44;50.89
70916;BME280;58557;50.982;-3.222;2023-02-21T07:46:58;101211.71;;;12.88;52.04
70916;BME280;58557;50.982;-3.222;2023-02-21T07:49:23;101212.01;;;12.79;49.91
70916;BME280;58557;50.982;-3.222;2023-02-21T07:51:48;101209.45;;;13.91;50.37
70916;BME280;58557;50.982;-3.222;2023-02-21T07:54:15;101205.84;;;13.88;48.13
70916;BME280;58557;50.982;-3.222;2023-02-21T07:56:42;101206.20;;;14.44;48.57
70916;BME280;58557;50.982;-3.222;2023-02-21T07:59:04;101205.72;;;13.90;49.15
70916;BME280;58557;50.982;-3.222;2023-02-21T08:01:29;101207.70;;;13.65;48.93
70916;BME280;58557;50.982;-3.222;2023-02-21T08:03:55;101207.61;;;13.83;48.42
70916;BME280;58557;50.982;-3.222;2023-02-21T08:06:20;101207.18;;;13.99;48.30
70916;BME280;58557;50.982;-3.222;2023-02-21T08:08:46;101209.71;;;13.08;49.63
70916;BME280;58557;50.982;-3.222;2023-02-21T08:11:11;101209.38;;;14.28;48.84
70916;BME280;58557;50.982;-3.222;2023-02-21T08:13:37;101208.11;;;13.70;49.56
70916;BME280;58557;50.982;-3.222;2023-02-21T08:16:02;101204.75;;;13.88;49.61
70916;BME280;58557;50.982;-3.222;2023-02-21T08:18:28;101208.93;;;13.28;49.03
70916;BME280;58557;50.982;-3.222;2023-02-21T08:20:54;101205.90;;;14.01;47.68
70916;BME280;58557;50.982;-3.222;2023-02-21T08:23:20;101208.19;;;14.24;47.69
70916;BME280;58557;50.982;-3.222;2023-02-21T08:25:45;101206.77;;;14.14;46.43
70916;BME280;58557;50.982;-3.222;2023-02-21T08:28:10;101202.59;;;14.58;47.37
70916;BME280;58557;50.982;-3.222;2023-02-21T08:30:35;101203.60;;;14.78;45.62
70916;BME280;58557;50.982;-3.222;2023-02-21T08:33:01;101204.26;;;14.20;48.51
70916;BME280;58557;50.982;-3.222;2023-02-21T08:35:26;101210.42;;;14.02;47.22
70916;BME280;58557;50.982;-3.222;2023-02-21T08:37:52;101213.70;;;13.44;48.88
70916;BME280;58557;50.982;-3.222;2023-02-21T08:40:18;101212.86;;;12.39;50.13
70916;BME280;58557;50.982;-3.222;2023-02-21T08:42:47;101213.78;;;12.28;54.02
70916;BME280;58557;50.982;-3.222;2023-02-21T08:45:14;101210.80;;;13.29;51.19
70916;BME280;58557;50.982;-3.222;2023-02-21T08:47:35;101204.20;;;10.61;53.83
70916;BME280;58557;50.982;-3.222;2023-02-21T08:50:01;101202.00;;;12.94;50.81
70916;BME280;58557;50.982;-3.222;2023-02-21T08:52:27;101197.30;;;13.56;48.85
70916;BME280;58557;50.982;-3.222;2023-02-21T08:54:52;101193.51;;;11.98;49.86
70916;BME280;58557;50.982;-3.222;2023-02-21T08:57:18;101184.50;;;13.57;48.63
70916;BME280;58557;50.982;-3.222;2023-02-21T08:59:44;101184.06;;;11.14;53.97
70916;BME280;58557;50.982;-3.222;2023-02-21T09:02:14;101176.56;;;13.38;50.38
70916;BME280;58557;50.982;-3.222;2023-02-21T09:04:35;101180.35;;;14.33;47.40
70916;BME280;58557;50.982;-3.222;2023-02-21T09:07:01;101179.66;;;12.51;49.69
70916;BME280;58557;50.982;-3.222;2023-02-21T09:09:27;101177.54;;;12.56;49.58
70916;BME280;58557;50.982;-3.222;2023-02-21T09:11:53;101175.22;;;12.21;51.94
70916;BME280;58557;50.982;-3.222;2023-02-21T09:14:19;101174.14;;;12.68;49.89
70916;BME280;58557;50.982;-3.222;2023-02-21T09:16:45;101175.53;;;11.06;54.26
70916;BME280;58557;50.982;-3.222;2023-02-21T09:19:10;101174.71;;;11.14;52.53
70916;BME280;58557;50.982;-3.222;2023-02-21T09:21:36;101171.92;;;12.65;50.25
70916;BME280;58557;50.982;-3.222;2023-02-21T09:24:02;101170.01;;;10.95;53.62
70916;BME280;58557;50.982;-3.222;2023-02-21T09:26:28;101171.27;;;11.09;54.57
70916;BME280;58557;50.982;-3.222;2023-02-21T09:28:54;101171.29;;;12.72;51.85
70916;BME280;58557;50.982;-3.222;2023-02-21T09:31:20;101173.49;;;10.68;54.41
70916;BME280;58557;50.982;-3.222;2023-02-21T09:33:45;101169.39;;;12.93;51.21
70916;BME280;58557;50.982;-3.222;2023-02-21T09:36:12;101170.58;;;14.36;47.37
70916;BME280;58557;50.982;-3.222;2023-02-21T09:38:37;101165.17;;;13.34;47.90
70916;BME280;58557;50.982;-3.222;2023-02-21T09:41:04;101162.36;;;13.53;47.15
70916;BME280;58557;50.982;-3.222;2023-02-21T09:43:31;101162.35;;;13.68;47.25
70916;BME280;58557;50.982;-3.222;2023-02-21T09:45:57;101163.72;;;14.30;46.99
70916;BME280;58557;50.982;-3.222;2023-02-21T09:48:21;101163.61;;;14.84;45.70
70916;BME280;58557;50.982;-3.222;2023-02-21T09:50:48;101158.50;;;14.36;44.15
70916;BME280;58557;50.982;-3.222;2023-02-21T09:53:16;101159.69;;;13.89;46.73
70916;BME280;58557;50.982;-3.222;2023-02-21T09:55:38;101159.26;;;14.51;44.40
70916;BME280;58557;50.982;-3.222;2023-02-21T09:58:10;101157.50;;;14.73;45.31
70916;BME280;58557;50.982;-3.222;2023-02-21T10:00:33;101154.11;;;14.58;45.22
70916;BME280;58557;50.982;-3.222;2023-02-21T10:03:02;101153.46;;;14.52;45.22
70916;BME280;58557;50.982;-3.222;2023-02-21T10:05:29;101152.88;;;13.79;46.89
70916;BME280;58557;50.982;-3.222;2023-02-21T10:07:52;101152.08;;;14.81;45.63
70916;BME280;58557;50.982;-3.222;2023-02-21T10:10:15;101153.42;;;14.31;45.11
70916;BME280;58557;50.982;-3.222;2023-02-21T10:12:43;101149.22;;;14.82;44.15
70916;BME280;58557;50.982;-3.222;2023-02-21T10:15:15;101151.38;;;15.57;43.15
70916;BME280;58557;50.982;-3.222;2023-02-21T10:17:33;101147.55;;;13.40;47.29
70916;BME280;58557;50.982;-3.222;2023-02-21T10:20:00;101145.16;;;13.45;46.85
70916;BME280;58557;50.982;-3.222;2023-02-21T10:22:26;101145.37;;;13.87;45.65
70916;BME280;58557;50.982;-3.222;2023-02-21T10:24:47;101143.24;;;14.59;43.99
70916;BME280;58557;50.982;-3.222;2023-02-21T10:27:16;101137.69;;;12.81;47.35
70916;BME280;58557;50.982;-3.222;2023-02-21T10:29:45;101137.94;;;14.54;45.04
70916;BME280;58557;50.982;-3.222;2023-02-21T10:32:04;101130.97;;;15.59;41.54
70916;BME280;58557;50.982;-3.222;2023-02-21T10:34:32;101130.22;;;15.54;42.32
70916;BME280;58557;50.982;-3.222;2023-02-21T10:37:00;101131.80;;;15.66;41.79
70916;BME280;58557;50.982;-3.222;2023-02-21T10:39:27;101136.47;;;14.40;43.53
70916;BME280;58557;50.982;-3.222;2023-02-21T10:41:49;101132.27;;;14.46;42.60
70916;BME280;58557;50.982;-3.222;2023-02-21T10:44:16;101127.75;;;14.56;43.40
70916;BME280;58557;50.982;-3.222;2023-02-21T10:46:44;101131.68;;;14.38;44.00
70916;BME280;58557;50.982;-3.222;2023-02-21T10:51:32;101131.26;;;14.44;44.05
70916;BME280;58557;50.982;-3.222;2023-02-21T10:56:27;101133.58;;;14.52;43.88
70916;BME280;58557;50.982;-3.222;2023-02-21T10:58:50;101127.82;;;15.47;42.79
70916;BME280;58557;50.982;-3.222;2023-02-21T11:01:16;101127.11;;;15.15;42.45
70916;BME280;58557;50.982;-3.222;2023-02-21T11:03:43;101125.58;;;14.95;43.66
70916;BME280;58557;50.982;-3.222;2023-02-21T11:06:05;101123.69;;;14.88;42.95
70916;BME280;58557;50.982;-3.222;2023-02-21T11:08:35;101126.28;;;14.33;43.81
70916;BME280;58557;50.982;-3.222;2023-02-21T11:10:57;101122.47;;;14.72;43.99
70916;BME280;58557;50.982;-3.222;2023-02-21T11:13:22;101120.34;;;14.38;44.48
70916;BME280;58557;50.982;-3.222;2023-02-21T11:16:06;101117.88;;;14.49;45.08
70916;BME280;58557;50.982;-3.222;2023-02-21T11:18:16;101115.33;;;14.48;43.56
70916;BME280;58557;50.982;-3.222;2023-02-21T11:20:40;101109.57;;;14.51;44.69
70916;BME280;58557;50.982;-3.222;2023-02-21T11:23:17;101107.58;;;14.20;43.61
70916;BME280;58557;50.982;-3.222;2023-02-21T11:25:37;101107.31;;;14.54;44.64
70916;BME280;58557;50.982;-3.222;2023-02-21T11:28:01;101105.32;;;15.19;44.14
70916;BME280;58557;50.982;-3.222;2023-02-21T11:30:23;101109.32;;;13.83;45.17
70916;BME280;58557;50.982;-3.222;2023-02-21T11:32:51;101102.16;;;12.46;47.01
70916;BME280;58557;50.982;-3.222;2023-02-21T11:35:24;101099.38;;;13.95;46.63
70916;BME280;58557;50.982;-3.222;2023-02-21T11:37:48;101096.21;;;13.80;47.19
70916;BME280;58557;50.982;-3.222;2023-02-21T11:42:33;101090.25;;;14.38;46.20
70916;BME280;58557;50.982;-3.222;2023-02-21T11:45:13;101082.24;;;12.79;48.16
70916;BME280;58557;50.982;-3.222;2023-02-21T11:47:28;101084.94;;;14.67;46.07
70916;BME280;58557;50.982;-3.222;2023-02-21T11:49:56;101075.09;;;15.10;43.26
70916;BME280;58557;50.982;-3.222;2023-02-21T11:52:21;101071.26;;;14.69;43.72
70916;BME280;58557;50.982;-3.222;2023-02-21T11:54:42;101073.44;;;14.07;45.78
70916;BME280;58557;50.982;-3.222;2023-02-21T11:57:13;101072.77;;;14.22;46.45
70916;BME280;58557;50.982;-3.222;2023-02-21T11:59:42;101063.62;;;14.72;45.60
70916;BME280;58557;50.982;-3.222;2023-02-21T12:04:34;101059.67;;;14.85;44.64
70916;BME280;58557;50.982;-3.222;2023-02-21T12:06:58;101058.27;;;14.89;44.76
70916;BME280;58557;50.982;-3.222;2023-02-21T12:09:22;101055.30;;;14.53;46.20
70916;BME280;58557;50.982;-3.222;2023-02-21T12:11:55;101047.79;;;15.16;44.26
70916;BME280;58557;50.982;-3.222;2023-02-21T12:14:24;101050.20;;;13.79;45.41
70916;BME280;58557;50.982;-3.222;2023-02-21T12:16:45;101040.53;;;12.63;47.35
70916;BME280;58557;50.982;-3.222;2023-02-21T12:19:18;101036.44;;;13.66;46.04
70916;BME280;58557;50.982;-3.222;2023-02-21T12:21:47;101034.78;;;14.38;44.70
70916;BME280;58557;50.982;-3.222;2023-02-21T12:23:56;101030.75;;;15.13;44.41
70916;BME280;58557;50.982;-3.222;2023-02-21T12:26:27;101030.32;;;14.65;43.19
70916;BME280;58557;50.982;-3.222;2023-02-21T12:28:54;101032.67;;;13.89;45.60
70916;BME280;58557;50.982;-3.222;2023-02-21T12:31:21;101026.84;;;13.31;47.61
70916;BME280;58557;50.982;-3.222;2023-02-21T12:33:42;101024.75;;;14.39;46.02
70916;BME280;58557;50.982;-3.222;2023-02-21T12:36:19;101020.53;;;14.79;44.65
70916;BME280;58557;50.982;-3.222;2023-02-21T12:38:31;101020.82;;;14.05;46.47
70916;BME280;58557;50.982;-3.222;2023-02-21T12:40:58;101017.63;;;13.97;46.79
70916;BME280;58557;50.982;-3.222;2023-02-21T12:43:29;101018.57;;;13.83;47.39
70916;BME280;58557;50.982;-3.222;2023-02-21T12:45:53;101011.26;;;14.25;45.73
70916;BME280;58557;50.982;-3.222;2023-02-21T12:48:15;101001.57;;;15.42;44.71